createdAt,value
2018-05-23T00:00:16.142Z,8.00
2018-05-23T00:01:16.130Z,8.00
2018-05-23T00:02:16.120Z,8.00
2018-05-23T00:03:16.102Z,8.00
2018-05-23T00:04:16.098Z,8.00
2018-05-23T00:05:16.077Z,8.00
2018-05-23T00:06:16.064Z,8.00
2018-05-23T00:07:16.050Z,8.00
2018-05-23T00:08:16.037Z,8.00
2018-05-23T00:09:16.031Z,8.00
2018-05-23T00:10:16.012Z,8.00
2018-05-23T00:11:15.995Z,8.00
2018-05-23T00:12:15.986Z,8.00
2018-05-23T00:13:15.972Z,8.00
2018-05-23T00:14:15.960Z,8.00
2018-05-23T00:15:15.944Z,8.00
2018-05-23T00:16:15.932Z,8.00
2018-05-23T00:17:15.920Z,8.00
2018-05-23T00:18:15.908Z,8.00
2018-05-23T00:19:15.892Z,8.00
2018-05-23T00:20:15.881Z,8.00
2018-05-23T00:21:15.867Z,8.00
2018-05-23T00:22:15.854Z,8.00
2018-05-23T00:23:15.842Z,8.00
2018-05-23T00:24:15.833Z,8.00
2018-05-23T00:25:15.816Z,8.00
2018-05-23T00:26:15.806Z,8.00
2018-05-23T00:27:15.787Z,8.00
2018-05-23T00:28:15.787Z,8.00
2018-05-23T00:29:15.768Z,8.00
2018-05-23T00:30:15.753Z,8.00
2018-05-23T00:31:15.744Z,8.00
2018-05-23T00:32:15.724Z,8.00
2018-05-23T00:33:15.710Z,8.00
2018-05-23T00:34:15.749Z,8.00
2018-05-23T00:35:15.684Z,8.00
2018-05-23T00:36:15.688Z,8.00
2018-05-23T00:37:15.658Z,8.00
2018-05-23T00:38:15.646Z,8.00
2018-05-23T00:39:15.631Z,8.00
2018-05-23T00:40:15.619Z,8.00
2018-05-23T00:41:15.606Z,8.00
2018-05-23T00:42:15.594Z,8.00
2018-05-23T00:43:15.578Z,8.00
2018-05-23T00:44:15.566Z,8.00
2018-05-23T00:45:15.553Z,8.00
2018-05-23T00:46:15.557Z,8.00
2018-05-23T00:47:15.532Z,8.00
2018-05-23T00:48:15.515Z,8.00
2018-05-23T00:49:15.502Z,8.00
2018-05-23T00:50:15.595Z,8.00
2018-05-23T00:51:15.483Z,8.00
2018-05-23T00:52:15.464Z,8.00
2018-05-23T00:53:15.449Z,8.00
2018-05-23T00:54:15.440Z,8.00
2018-05-23T00:55:15.424Z,8.00
2018-05-23T00:56:15.414Z,8.00
2018-05-23T00:57:15.397Z,8.00
2018-05-23T00:58:15.386Z,8.00
2018-05-23T00:59:15.373Z,8.00
2018-05-23T01:00:15.357Z,8.00
2018-05-23T01:01:15.343Z,8.00
2018-05-23T01:02:15.333Z,8.00
2018-05-23T01:03:15.320Z,8.00
2018-05-23T01:04:15.308Z,8.00
2018-05-23T01:05:15.292Z,8.00
2018-05-23T01:06:15.335Z,8.00
2018-05-23T01:07:15.263Z,8.00
2018-05-23T01:08:15.271Z,8.00
2018-05-23T01:09:15.247Z,8.00
2018-05-23T01:10:15.227Z,8.00
2018-05-23T01:11:15.211Z,8.00
2018-05-23T01:12:15.208Z,8.00
2018-05-23T01:13:15.186Z,8.00
2018-05-23T01:14:15.175Z,8.00
2018-05-23T01:15:15.161Z,8.00
2018-05-23T01:16:15.151Z,8.00
2018-05-23T01:17:15.132Z,8.00
2018-05-23T01:18:15.119Z,8.00
2018-05-23T01:19:15.106Z,8.00
2018-05-23T01:20:15.093Z,8.00
2018-05-23T01:21:15.081Z,8.00
2018-05-23T01:22:15.068Z,8.00
2018-05-23T01:23:15.052Z,8.00
2018-05-23T01:24:15.042Z,8.00
2018-05-23T01:25:15.029Z,8.00
2018-05-23T01:26:15.016Z,8.00
2018-05-23T01:27:15.000Z,8.00
2018-05-23T01:28:14.993Z,8.00
2018-05-23T01:29:14.976Z,8.00
2018-05-23T01:30:14.962Z,8.00
2018-05-23T01:31:14.948Z,8.00
2018-05-23T01:32:14.933Z,8.00
2018-05-23T01:33:14.921Z,8.00
2018-05-23T01:34:14.907Z,8.00
2018-05-23T01:35:14.893Z,8.00
2018-05-23T01:36:14.881Z,8.00
2018-05-23T01:37:14.868Z,8.00
2018-05-23T01:38:14.856Z,8.00
2018-05-23T01:39:14.849Z,8.00
2018-05-23T01:40:14.832Z,8.00
2018-05-23T01:41:14.814Z,8.00
2018-05-23T01:42:14.802Z,8.00
2018-05-23T01:43:14.786Z,8.00
2018-05-23T01:44:14.774Z,8.00
2018-05-23T01:45:14.764Z,8.00
2018-05-23T01:46:14.893Z,8.00
2018-05-23T01:47:14.747Z,8.00
2018-05-23T01:48:14.720Z,8.00
2018-05-23T01:49:14.760Z,8.00
2018-05-23T01:50:14.695Z,8.00
2018-05-23T01:51:14.681Z,8.00
2018-05-23T01:52:14.672Z,8.00
2018-05-23T01:53:14.655Z,8.00
2018-05-23T01:54:14.644Z,8.00
2018-05-23T01:55:14.629Z,8.00
2018-05-23T01:56:14.615Z,8.00
2018-05-23T01:57:14.602Z,8.00
2018-05-23T01:58:14.598Z,8.00
2018-05-23T01:59:14.576Z,8.00
2018-05-23T02:00:14.566Z,8.00
2018-05-23T02:01:14.550Z,8.00
2018-05-23T02:02:14.538Z,8.00
2018-05-23T02:03:14.522Z,8.00
2018-05-23T02:04:14.509Z,8.00
2018-05-23T02:05:14.504Z,8.00
2018-05-23T02:06:14.489Z,8.00
2018-05-23T02:07:14.469Z,8.00
2018-05-23T02:08:14.464Z,8.00
2018-05-23T02:09:14.444Z,8.00
2018-05-23T02:10:14.503Z,8.00
2018-05-23T02:11:14.425Z,8.00
2018-05-23T02:12:14.412Z,8.00
2018-05-23T02:13:14.392Z,8.00
2018-05-23T02:14:14.385Z,8.00
2018-05-23T02:15:14.361Z,8.00
2018-05-23T02:16:14.354Z,8.00
2018-05-23T02:17:14.347Z,8.00
2018-05-23T02:18:14.331Z,8.00
2018-05-23T02:19:14.309Z,8.00
2018-05-23T02:20:14.295Z,8.00
2018-05-23T02:21:14.283Z,8.00
2018-05-23T02:22:14.270Z,4.00
2018-05-23T02:23:14.258Z,8.00
2018-05-23T02:24:14.243Z,8.00
2018-05-23T02:25:14.230Z,8.00
2018-05-23T02:26:14.222Z,8.00
2018-05-23T02:27:14.204Z,8.00
2018-05-23T02:28:14.190Z,8.00
2018-05-23T02:29:14.184Z,8.00
2018-05-23T02:30:14.169Z,8.00
2018-05-23T02:31:14.149Z,8.00
2018-05-23T02:32:14.144Z,4.00
2018-05-23T02:33:14.123Z,4.00
2018-05-23T02:34:14.112Z,4.00
2018-05-23T02:35:14.100Z,4.00
2018-05-23T02:36:14.090Z,4.00
2018-05-23T02:37:14.082Z,4.00
2018-05-23T02:38:14.056Z,4.00
2018-05-23T02:39:14.042Z,4.00
2018-05-23T02:40:14.028Z,4.00
2018-05-23T02:41:14.016Z,4.00
2018-05-23T02:42:14.003Z,4.00
2018-05-23T02:43:13.986Z,4.00
2018-05-23T02:44:13.975Z,4.00
2018-05-23T02:45:13.963Z,4.00
2018-05-23T02:46:13.951Z,4.00
2018-05-23T02:47:14.097Z,4.00
2018-05-23T02:48:13.930Z,8.00
2018-05-23T02:49:13.908Z,8.00
2018-05-23T02:50:13.895Z,8.00
2018-05-23T02:51:13.880Z,8.00
2018-05-23T02:52:13.877Z,4.00
2018-05-23T02:53:13.854Z,4.00
2018-05-23T02:54:13.845Z,8.00
2018-05-23T02:55:13.829Z,8.00
2018-05-23T02:56:13.814Z,8.00
2018-05-23T02:57:13.800Z,12.00
2018-05-23T02:58:13.788Z,8.00
2018-05-23T02:59:13.772Z,8.00
2018-05-23T03:00:13.766Z,12.00
2018-05-23T03:01:13.747Z,8.00
2018-05-23T03:02:13.734Z,12.00
2018-05-23T03:03:13.719Z,12.00
2018-05-23T03:04:13.707Z,12.00
2018-05-23T03:05:13.692Z,12.00
2018-05-23T03:06:13.683Z,16.00
2018-05-23T03:07:13.677Z,16.00
2018-05-23T03:08:13.650Z,20.00
2018-05-23T03:09:13.648Z,20.00
2018-05-23T03:10:13.624Z,20.00
2018-05-23T03:11:13.610Z,20.00
2018-05-23T03:12:13.597Z,24.00
2018-05-23T03:13:13.584Z,24.00
2018-05-23T03:14:13.571Z,28.00
2018-05-23T03:15:13.555Z,28.00
2018-05-23T03:16:13.542Z,28.00
2018-05-23T03:17:13.529Z,32.00
2018-05-23T03:18:13.516Z,32.00
2018-05-23T03:19:13.509Z,36.00
2018-05-23T03:20:13.489Z,36.00
2018-05-23T03:21:13.474Z,40.00
2018-05-23T03:22:13.482Z,44.00
2018-05-23T03:23:13.448Z,48.00
2018-05-23T03:24:13.433Z,52.00
2018-05-23T03:25:13.423Z,52.00
2018-05-23T03:26:13.408Z,56.00
2018-05-23T03:27:13.401Z,60.00
2018-05-23T03:28:13.382Z,64.00
2018-05-23T03:29:13.367Z,68.00
2018-05-23T03:30:13.353Z,72.00
2018-05-23T03:31:13.339Z,80.00
2018-05-23T03:32:13.330Z,84.00
2018-05-23T03:33:13.319Z,92.00
2018-05-23T03:34:13.300Z,100.00
2018-05-23T03:35:13.284Z,104.00
2018-05-23T03:36:13.272Z,108.00
2018-05-23T03:37:13.257Z,120.00
2018-05-23T03:38:13.244Z,132.00
2018-05-23T03:39:13.230Z,148.00
2018-05-23T03:40:13.219Z,168.00
2018-05-23T03:41:13.205Z,188.00
2018-05-23T03:42:13.200Z,212.00
2018-05-23T03:43:13.184Z,240.00
2018-05-23T03:44:13.170Z,268.00
2018-05-23T03:45:13.149Z,296.00
2018-05-23T03:46:13.135Z,324.00
2018-05-23T03:47:13.122Z,356.00
2018-05-23T03:48:13.111Z,380.00
2018-05-23T03:49:13.095Z,408.00
2018-05-23T03:50:13.081Z,436.00
2018-05-23T03:51:13.067Z,464.00
2018-05-23T03:52:13.055Z,492.00
2018-05-23T03:53:13.047Z,516.00
2018-05-23T03:54:13.027Z,544.00
2018-05-23T03:55:13.084Z,572.00
2018-05-23T03:56:12.999Z,592.00
2018-05-23T03:57:13.087Z,616.00
2018-05-23T03:58:12.973Z,644.00
2018-05-23T03:59:12.966Z,672.00
2018-05-23T04:00:12.945Z,700.00
2018-05-23T04:01:12.931Z,728.00
2018-05-23T04:02:12.917Z,760.00
2018-05-23T04:03:12.905Z,780.00
2018-05-23T04:04:12.913Z,796.00
2018-05-23T04:05:12.878Z,816.00
2018-05-23T04:06:12.863Z,828.00
2018-05-23T04:07:12.851Z,844.00
2018-05-23T04:08:12.836Z,872.00
2018-05-23T04:09:12.823Z,904.00
2018-05-23T04:10:12.820Z,952.00
2018-05-23T04:11:12.802Z,1016.00
2018-05-23T04:12:12.780Z,1084.00
2018-05-23T04:13:12.777Z,1160.00
2018-05-23T04:14:12.755Z,1224.00
2018-05-23T04:15:12.739Z,1284.00
2018-05-23T04:16:12.733Z,1340.00
2018-05-23T04:17:12.721Z,1388.00
2018-05-23T04:18:12.700Z,1428.00
2018-05-23T04:19:12.691Z,1472.00
2018-05-23T04:20:12.681Z,1516.00
2018-05-23T04:21:12.663Z,1560.00
2018-05-23T04:22:12.648Z,1596.00
2018-05-23T04:23:12.635Z,1624.00
2018-05-23T04:24:12.620Z,1652.00
2018-05-23T04:25:12.604Z,1688.00
2018-05-23T04:26:12.591Z,1736.00
2018-05-23T04:27:12.580Z,1796.00
2018-05-23T04:28:12.566Z,1856.00
2018-05-23T04:29:12.561Z,1920.00
2018-05-23T04:30:12.539Z,1984.00
2018-05-23T04:31:12.532Z,2028.00
2018-05-23T04:32:12.509Z,2076.00
2018-05-23T04:33:12.501Z,2116.00
2018-05-23T04:34:12.534Z,2160.00
2018-05-23T04:35:12.473Z,2204.00
2018-05-23T04:36:12.456Z,2248.00
2018-05-23T04:37:12.450Z,2292.00
2018-05-23T04:38:12.435Z,2336.00
2018-05-23T04:39:12.446Z,2384.00
2018-05-23T04:40:12.407Z,2444.00
2018-05-23T04:41:12.400Z,2516.00
2018-05-23T04:42:12.378Z,2600.00
2018-05-23T04:43:12.371Z,2688.00
2018-05-23T04:44:12.358Z,2780.00
2018-05-23T04:45:12.337Z,2864.00
2018-05-23T04:46:12.322Z,2928.00
2018-05-23T04:47:12.309Z,2984.00
2018-05-23T04:48:12.299Z,3004.00
2018-05-23T04:49:12.284Z,3012.00
2018-05-23T04:50:12.421Z,3008.00
2018-05-23T04:51:12.261Z,3004.00
2018-05-23T04:52:12.247Z,3016.00
2018-05-23T04:53:12.229Z,3040.00
2018-05-23T04:54:12.215Z,3068.00
2018-05-23T04:55:12.201Z,3116.00
2018-05-23T04:56:12.196Z,3180.00
2018-05-23T04:57:12.177Z,3256.00
2018-05-23T04:58:12.164Z,3344.00
2018-05-23T04:59:12.151Z,3444.00
2018-05-23T05:00:12.136Z,3560.00
2018-05-23T05:01:12.123Z,3660.00
2018-05-23T05:02:12.110Z,3756.00
2018-05-23T05:03:12.104Z,3832.00
2018-05-23T05:04:12.083Z,3892.00
2018-05-23T05:05:12.079Z,3940.00
2018-05-23T05:06:12.160Z,3984.00
2018-05-23T05:07:12.044Z,4032.00
2018-05-23T05:08:12.030Z,4092.00
2018-05-23T05:09:12.017Z,4172.00
2018-05-23T05:10:12.004Z,4252.00
2018-05-23T05:11:11.990Z,4324.00
2018-05-23T05:12:11.977Z,4352.00
2018-05-23T05:13:11.972Z,4344.00
2018-05-23T05:14:11.952Z,4308.00
2018-05-23T05:15:11.939Z,4248.00
2018-05-23T05:16:11.926Z,4196.00
2018-05-23T05:17:11.913Z,4188.00
2018-05-23T05:18:11.900Z,4204.00
2018-05-23T05:19:11.886Z,4268.00
2018-05-23T05:20:11.872Z,4376.00
2018-05-23T05:21:11.859Z,4488.00
2018-05-23T05:22:11.846Z,4656.00
2018-05-23T05:23:11.839Z,4876.00
2018-05-23T05:24:11.822Z,5104.00
2018-05-23T05:25:11.806Z,5308.00
2018-05-23T05:26:11.793Z,5484.00
2018-05-23T05:27:11.781Z,5708.00
2018-05-23T05:28:11.772Z,5896.00
2018-05-23T05:29:11.757Z,6096.00
2018-05-23T05:30:11.744Z,6276.00
2018-05-23T05:31:11.730Z,6412.00
2018-05-23T05:32:11.723Z,6492.00
2018-05-23T05:33:11.706Z,6640.00
2018-05-23T05:34:11.698Z,6792.00
2018-05-23T05:35:11.687Z,6964.00
2018-05-23T05:36:11.676Z,7172.00
2018-05-23T05:37:11.653Z,7396.00
2018-05-23T05:38:11.639Z,7640.00
2018-05-23T05:39:11.643Z,7840.00
2018-05-23T05:40:11.692Z,8000.00
2018-05-23T05:41:11.602Z,8076.00
2018-05-23T05:42:11.594Z,8112.00
2018-05-23T05:43:11.579Z,8156.00
2018-05-23T05:44:11.564Z,8248.00
2018-05-23T05:45:11.552Z,8276.00
2018-05-23T05:46:11.539Z,8244.00
2018-05-23T05:47:11.525Z,8148.00
2018-05-23T05:48:11.512Z,8056.00
2018-05-23T05:49:11.501Z,7984.00
2018-05-23T05:50:11.499Z,7928.00
2018-05-23T05:51:11.474Z,7900.00
2018-05-23T05:52:11.463Z,7764.00
2018-05-23T05:53:11.450Z,7644.00
2018-05-23T05:54:11.438Z,7396.00
2018-05-23T05:55:11.426Z,7152.00
2018-05-23T05:56:11.417Z,6900.00
2018-05-23T05:57:11.405Z,6704.00
2018-05-23T05:58:11.387Z,6600.00
2018-05-23T05:59:11.376Z,6476.00
2018-05-23T06:00:11.372Z,6384.00
2018-05-23T06:01:11.355Z,6200.00
2018-05-23T06:02:11.340Z,6320.00
2018-05-23T06:03:11.329Z,6396.00
2018-05-23T06:04:11.324Z,6652.00
2018-05-23T06:05:11.304Z,7436.00
2018-05-23T06:06:11.291Z,8044.00
2018-05-23T06:07:11.285Z,8444.00
2018-05-23T06:08:11.270Z,8116.00
2018-05-23T06:09:11.315Z,8376.00
2018-05-23T06:10:11.242Z,8780.00
2018-05-23T06:11:11.231Z,9604.00
2018-05-23T06:12:11.218Z,9536.00
2018-05-23T06:13:11.221Z,9684.00
2018-05-23T06:14:11.193Z,10008.00
2018-05-23T06:15:11.188Z,10388.00
2018-05-23T06:16:11.170Z,10960.00
2018-05-23T06:17:11.157Z,11124.00
2018-05-23T06:18:11.150Z,11892.00
2018-05-23T06:19:11.132Z,11920.00
2018-05-23T06:20:11.121Z,11944.00
2018-05-23T06:21:11.110Z,11908.00
2018-05-23T06:22:11.099Z,11864.00
2018-05-23T06:23:11.097Z,12380.00
2018-05-23T06:24:11.079Z,12412.00
2018-05-23T06:25:11.089Z,13244.00
2018-05-23T06:26:11.058Z,13336.00
2018-05-23T06:27:11.038Z,13420.00
2018-05-23T06:28:11.035Z,13436.00
2018-05-23T06:29:11.016Z,13268.00
2018-05-23T06:30:11.158Z,13204.00
2018-05-23T06:31:10.994Z,13344.00
2018-05-23T06:32:10.991Z,13488.00
2018-05-23T06:33:10.973Z,13784.00
2018-05-23T06:34:10.966Z,13928.00
2018-05-23T06:35:10.958Z,13980.00
2018-05-23T06:36:10.937Z,13868.00
2018-05-23T06:37:10.926Z,13664.00
2018-05-23T06:38:10.918Z,13524.00
2018-05-23T06:39:10.902Z,13692.00
2018-05-23T06:40:10.892Z,14264.00
2018-05-23T06:41:10.881Z,15068.00
2018-05-23T06:42:10.876Z,15840.00
2018-05-23T06:43:10.859Z,16480.00
2018-05-23T06:44:10.848Z,16672.00
2018-05-23T06:45:10.836Z,16608.00
2018-05-23T06:46:10.827Z,16288.00
2018-05-23T06:47:10.817Z,15808.00
2018-05-23T06:48:10.804Z,15496.00
2018-05-23T06:49:10.794Z,15176.00
2018-05-23T06:50:10.812Z,14936.00
2018-05-23T06:51:10.772Z,14692.00
2018-05-23T06:52:10.762Z,14456.00
2018-05-23T06:53:10.752Z,14244.00
2018-05-23T06:54:10.741Z,14088.00
2018-05-23T06:55:10.739Z,13964.00
2018-05-23T06:56:10.725Z,13824.00
2018-05-23T06:57:10.721Z,13528.00
2018-05-23T06:58:10.707Z,13008.00
2018-05-23T06:59:10.686Z,12604.00
2018-05-23T07:00:10.677Z,12232.00
2018-05-23T07:01:10.670Z,11948.00
2018-05-23T07:02:10.656Z,11760.00
2018-05-23T07:03:10.645Z,11648.00
2018-05-23T07:04:10.635Z,11596.00
2018-05-23T07:05:10.625Z,11692.00
2018-05-23T07:06:10.618Z,11904.00
2018-05-23T07:07:10.612Z,12212.00
2018-05-23T07:08:10.595Z,12644.00
2018-05-23T07:09:10.581Z,12868.00
2018-05-23T07:10:10.571Z,13140.00
2018-05-23T07:11:10.593Z,13308.00
2018-05-23T07:12:10.559Z,13364.00
2018-05-23T07:13:10.544Z,13380.00
2018-05-23T07:14:10.532Z,13312.00
2018-05-23T07:15:10.521Z,13272.00
2018-05-23T07:16:10.506Z,13356.00
2018-05-23T07:17:10.553Z,13400.00
2018-05-23T07:18:10.574Z,13460.00
2018-05-23T07:19:10.480Z,13604.00
2018-05-23T07:20:10.473Z,13720.00
2018-05-23T07:21:10.459Z,13920.00
2018-05-23T07:22:10.449Z,14216.00
2018-05-23T07:23:10.440Z,14500.00
2018-05-23T07:24:10.435Z,14748.00
2018-05-23T07:25:10.415Z,15012.00
2018-05-23T07:26:10.408Z,15140.00
2018-05-23T07:27:10.393Z,15348.00
2018-05-23T07:28:10.384Z,15700.00
2018-05-23T07:29:10.374Z,16024.00
2018-05-23T07:30:10.374Z,16416.00
2018-05-23T07:31:10.355Z,16800.00
2018-05-23T07:32:10.345Z,17216.00
2018-05-23T07:33:10.329Z,17568.00
2018-05-23T07:34:10.320Z,17728.00
2018-05-23T07:35:10.310Z,18016.00
2018-05-23T07:36:10.304Z,18208.00
2018-05-23T07:37:10.296Z,18432.00
2018-05-23T07:38:10.280Z,18752.00
2018-05-23T07:39:10.325Z,18976.00
2018-05-23T07:40:10.269Z,19136.00
2018-05-23T07:41:10.250Z,19296.00
2018-05-23T07:42:10.239Z,19552.00
2018-05-23T07:43:10.227Z,20224.00
2018-05-23T07:44:10.216Z,19936.00
2018-05-23T07:45:10.206Z,20160.00
2018-05-23T07:46:10.196Z,21248.00
2018-05-23T07:47:10.189Z,20992.00
2018-05-23T07:48:10.176Z,21856.00
2018-05-23T07:49:10.166Z,22240.00
2018-05-23T07:50:10.164Z,22016.00
2018-05-23T07:51:10.161Z,22496.00
2018-05-23T07:52:10.137Z,22336.00
2018-05-23T07:53:10.128Z,22624.00
2018-05-23T07:54:10.119Z,23392.00
2018-05-23T07:55:10.110Z,23552.00
2018-05-23T07:56:10.101Z,24672.00
2018-05-23T07:57:10.089Z,26816.00
2018-05-23T07:58:10.083Z,32384.00
2018-05-23T07:59:10.071Z,39264.00
2018-05-23T08:00:10.071Z,40032.00
2018-05-23T08:01:10.056Z,36256.00
2018-05-23T08:02:10.044Z,29856.00
2018-05-23T08:03:10.035Z,28896.00
2018-05-23T08:04:10.031Z,27456.00
2018-05-23T08:05:10.019Z,24736.00
2018-05-23T08:06:10.012Z,24064.00
2018-05-23T08:07:10.018Z,24064.00
2018-05-23T08:08:09.989Z,24224.00
2018-05-23T08:09:09.981Z,23072.00
2018-05-23T08:10:09.977Z,23712.00
2018-05-23T08:11:09.967Z,22624.00
2018-05-23T08:12:09.953Z,23072.00
2018-05-23T08:13:09.947Z,21952.00
2018-05-23T08:14:09.937Z,22016.00
2018-05-23T08:15:09.936Z,21728.00
2018-05-23T08:16:09.920Z,21600.00
2018-05-23T08:17:09.913Z,21824.00
2018-05-23T08:18:09.986Z,20864.00
2018-05-23T08:19:09.894Z,20640.00
2018-05-23T08:20:09.893Z,20544.00
2018-05-23T08:21:09.876Z,20352.00
2018-05-23T08:22:09.872Z,20224.00
2018-05-23T08:23:09.861Z,20192.00
2018-05-23T08:24:09.849Z,20384.00
2018-05-23T08:25:09.850Z,20288.00
2018-05-23T08:26:09.898Z,20480.00
2018-05-23T08:27:09.825Z,20864.00
2018-05-23T08:28:09.815Z,21024.00
2018-05-23T08:29:09.804Z,21920.00
2018-05-23T08:30:09.797Z,21920.00
2018-05-23T08:31:09.790Z,22592.00
2018-05-23T08:32:09.782Z,22400.00
2018-05-23T08:33:09.769Z,22720.00
2018-05-23T08:34:09.761Z,22944.00
2018-05-23T08:35:09.764Z,23616.00
2018-05-23T08:36:09.750Z,23616.00
2018-05-23T08:37:09.735Z,23680.00
2018-05-23T08:38:09.724Z,23968.00
2018-05-23T08:39:09.722Z,23872.00
2018-05-23T08:40:09.704Z,24352.00
2018-05-23T08:41:09.713Z,23552.00
2018-05-23T08:42:09.693Z,22912.00
2018-05-23T08:43:09.681Z,23904.00
2018-05-23T08:44:09.673Z,22656.00
2018-05-23T08:45:09.670Z,22624.00
2018-05-23T08:46:09.688Z,22016.00
2018-05-23T08:47:09.643Z,21952.00
2018-05-23T08:48:09.645Z,21600.00
2018-05-23T08:49:09.634Z,21248.00
2018-05-23T08:50:09.618Z,21440.00
2018-05-23T08:51:09.611Z,21344.00
2018-05-23T08:52:09.648Z,21440.00
2018-05-23T08:53:09.591Z,22944.00
2018-05-23T08:54:09.590Z,21856.00
2018-05-23T08:55:09.580Z,21536.00
2018-05-23T08:56:09.575Z,22016.00
2018-05-23T08:57:09.563Z,23008.00
2018-05-23T08:58:09.549Z,22784.00
2018-05-23T08:59:09.537Z,21696.00
2018-05-23T09:00:09.536Z,21280.00
2018-05-23T09:01:09.520Z,21600.00
2018-05-23T09:02:09.522Z,20992.00
2018-05-23T09:03:09.506Z,20192.00
2018-05-23T09:04:09.494Z,19872.00
2018-05-23T09:05:09.494Z,20704.00
2018-05-23T09:06:09.499Z,20064.00
2018-05-23T09:07:09.468Z,20224.00
2018-05-23T09:08:09.459Z,20320.00
2018-05-23T09:09:09.467Z,21088.00
2018-05-23T09:10:09.441Z,20960.00
2018-05-23T09:11:09.440Z,21056.00
2018-05-23T09:12:09.477Z,20896.00
2018-05-23T09:13:09.414Z,20960.00
2018-05-23T09:14:09.409Z,22112.00
2018-05-23T09:15:09.404Z,25024.00
2018-05-23T09:16:09.390Z,21376.00
2018-05-23T09:17:09.381Z,21248.00
2018-05-23T09:18:09.380Z,21568.00
2018-05-23T09:19:09.368Z,21792.00
2018-05-23T09:20:09.362Z,22336.00
2018-05-23T09:21:09.346Z,29088.00
2018-05-23T09:22:09.337Z,22624.00
2018-05-23T09:23:09.332Z,23584.00
2018-05-23T09:24:09.325Z,26272.00
2018-05-23T09:25:09.311Z,24256.00
2018-05-23T09:26:09.301Z,24672.00
2018-05-23T09:27:09.295Z,25024.00
2018-05-23T09:28:09.285Z,25440.00
2018-05-23T09:29:09.281Z,27488.00
2018-05-23T09:30:09.269Z,29888.00
2018-05-23T09:31:09.259Z,31264.00
2018-05-23T09:32:09.277Z,32576.00
2018-05-23T09:33:09.241Z,38144.00
2018-05-23T09:34:09.233Z,29792.00
2018-05-23T09:35:09.333Z,30144.00
2018-05-23T09:36:09.225Z,41664.00
2018-05-23T09:37:09.221Z,31168.00
2018-05-23T09:38:09.211Z,35456.00
2018-05-23T09:39:09.227Z,44768.00
2018-05-23T09:40:09.190Z,30144.00
2018-05-23T09:41:09.178Z,30272.00
2018-05-23T09:42:09.171Z,44128.00
2018-05-23T09:43:09.162Z,54240.00
2018-05-23T09:44:09.155Z,61888.00
2018-05-23T09:45:09.255Z,30432.00
2018-05-23T09:46:09.141Z,36672.00
2018-05-23T09:47:09.134Z,18176.00
2018-05-23T09:48:09.138Z,29024.00
2018-05-23T09:49:09.120Z,28544.00
2018-05-23T09:50:09.114Z,30720.00
2018-05-23T09:51:09.112Z,28512.00
2018-05-23T09:52:09.106Z,28800.00
2018-05-23T09:53:09.095Z,34528.00
2018-05-23T09:54:09.085Z,47488.00
2018-05-23T09:55:09.246Z,29568.00
2018-05-23T09:56:09.072Z,33504.00
2018-05-23T09:57:09.065Z,32320.00
2018-05-23T09:58:09.058Z,31552.00
2018-05-23T09:59:09.051Z,50688.00
2018-05-23T10:00:09.045Z,30848.00
2018-05-23T10:01:09.042Z,32320.00
2018-05-23T10:02:09.033Z,33952.00
2018-05-23T10:03:09.024Z,48192.00
2018-05-23T10:04:09.022Z,57920.00
2018-05-23T10:05:09.028Z,48160.00
2018-05-23T10:06:09.008Z,59424.00
2018-05-23T10:07:08.999Z,54240.00
2018-05-23T10:08:08.995Z,43456.00
2018-05-23T10:09:08.997Z,54720.00
2018-05-23T10:10:08.982Z,40832.00
2018-05-23T10:11:09.072Z,37760.00
2018-05-23T10:12:09.127Z,62528.00
2018-05-23T10:13:08.968Z,60992.00
2018-05-23T10:14:08.960Z,59232.00
2018-05-23T10:15:08.956Z,37664.00
2018-05-23T10:16:08.964Z,54688.00
2018-05-23T10:17:08.944Z,63648.00
2018-05-23T10:18:08.939Z,65728.00
2018-05-23T10:19:08.934Z,52384.00
2018-05-23T10:20:08.928Z,61120.00
2018-05-23T10:21:08.931Z,65024.00
2018-05-23T10:22:08.919Z,71136.00
2018-05-23T10:23:08.935Z,56960.00
2018-05-23T10:24:08.911Z,48480.00
2018-05-23T10:25:08.908Z,37216.00
2018-05-23T10:26:08.904Z,44992.00
2018-05-23T10:27:08.901Z,49280.00
2018-05-23T10:28:08.896Z,58208.00
2018-05-23T10:29:08.892Z,59424.00
2018-05-23T10:30:08.894Z,46496.00
2018-05-23T10:31:08.894Z,52928.00
2018-05-23T10:32:08.887Z,49536.00
2018-05-23T10:33:08.880Z,49472.00
2018-05-23T10:34:08.877Z,51840.00
2018-05-23T10:35:08.873Z,52096.00
2018-05-23T10:36:08.874Z,40544.00
2018-05-23T10:37:08.866Z,33504.00
2018-05-23T10:38:08.871Z,38208.00
2018-05-23T10:39:08.922Z,35232.00
2018-05-23T10:40:08.856Z,34432.00
2018-05-23T10:41:08.955Z,33056.00
2018-05-23T10:42:08.859Z,32576.00
2018-05-23T10:43:08.847Z,30592.00
2018-05-23T10:44:08.844Z,29952.00
2018-05-23T10:45:08.840Z,33472.00
2018-05-23T10:46:08.888Z,33984.00
2018-05-23T10:47:08.834Z,32000.00
2018-05-23T10:48:08.837Z,30208.00
2018-05-23T10:49:08.827Z,26080.00
2018-05-23T10:50:08.828Z,24224.00
2018-05-23T10:51:08.812Z,25792.00
2018-05-23T10:52:08.973Z,23968.00
2018-05-23T10:53:08.804Z,25312.00
2018-05-23T10:54:08.804Z,24672.00
2018-05-23T10:55:08.804Z,24832.00
2018-05-23T10:56:08.795Z,24992.00
2018-05-23T10:57:08.792Z,27776.00
2018-05-23T10:58:08.787Z,26688.00
2018-05-23T10:59:08.776Z,25792.00
2018-05-23T11:00:08.866Z,26176.00
2018-05-23T11:01:08.762Z,28320.00
2018-05-23T11:02:08.760Z,27008.00
2018-05-23T11:03:08.756Z,25088.00
2018-05-23T11:04:08.754Z,24864.00
2018-05-23T11:05:08.742Z,21472.00
2018-05-23T11:06:08.735Z,19744.00
2018-05-23T11:07:08.729Z,18848.00
2018-05-23T11:08:08.723Z,18464.00
2018-05-23T11:09:08.717Z,19008.00
2018-05-23T11:10:08.710Z,18848.00
2018-05-23T11:11:08.712Z,17472.00
2018-05-23T11:12:08.705Z,16576.00
2018-05-23T11:13:08.692Z,16352.00
2018-05-23T11:14:08.684Z,16480.00
2018-05-23T11:15:08.680Z,16736.00
2018-05-23T11:16:08.678Z,17216.00
2018-05-23T11:17:08.664Z,17856.00
2018-05-23T11:18:08.657Z,18976.00
2018-05-23T11:19:08.657Z,18624.00
2018-05-23T11:20:08.643Z,18400.00
2018-05-23T11:21:08.635Z,18624.00
2018-05-23T11:22:08.636Z,18400.00
2018-05-23T11:23:08.622Z,18496.00
2018-05-23T11:24:08.614Z,18880.00
2018-05-23T11:25:08.607Z,19264.00
2018-05-23T11:26:08.601Z,19232.00
2018-05-23T11:27:08.594Z,19840.00
2018-05-23T11:28:08.588Z,19968.00
2018-05-23T11:29:08.578Z,20224.00
2018-05-23T11:30:08.568Z,20192.00
2018-05-23T11:31:08.561Z,20256.00
2018-05-23T11:32:08.563Z,20640.00
2018-05-23T11:33:08.547Z,21504.00
2018-05-23T11:34:08.539Z,22880.00
2018-05-23T11:35:08.530Z,20000.00
2018-05-23T11:36:08.533Z,20128.00
2018-05-23T11:37:08.518Z,20160.00
2018-05-23T11:38:08.508Z,20032.00
2018-05-23T11:39:08.499Z,19744.00
2018-05-23T11:40:08.496Z,18304.00
2018-05-23T11:41:08.492Z,17568.00
2018-05-23T11:42:08.477Z,16800.00
2018-05-23T11:43:08.468Z,16012.00
2018-05-23T11:44:08.459Z,15376.00
2018-05-23T11:45:08.454Z,14956.00
2018-05-23T11:46:08.452Z,14444.00
2018-05-23T11:47:08.443Z,14448.00
2018-05-23T11:48:08.434Z,14976.00
2018-05-23T11:49:08.421Z,14504.00
2018-05-23T11:50:08.411Z,15512.00
2018-05-23T11:51:08.405Z,16288.00
2018-05-23T11:52:08.431Z,16864.00
2018-05-23T11:53:08.387Z,17472.00
2018-05-23T11:54:08.380Z,17856.00
2018-05-23T11:55:08.369Z,18304.00
2018-05-23T11:56:08.366Z,18432.00
2018-05-23T11:57:08.357Z,18496.00
2018-05-23T11:58:08.345Z,18592.00
2018-05-23T11:59:08.339Z,18272.00
2018-05-23T12:00:08.327Z,18048.00
2018-05-23T12:01:08.318Z,17824.00
2018-05-23T12:02:08.470Z,17408.00
2018-05-23T12:03:08.301Z,17152.00
2018-05-23T12:04:08.293Z,16896.00
2018-05-23T12:05:08.292Z,16768.00
2018-05-23T12:06:08.282Z,16704.00
2018-05-23T12:07:08.273Z,16608.00
2018-05-23T12:08:08.273Z,16544.00
2018-05-23T12:09:08.256Z,16608.00
2018-05-23T12:10:08.251Z,16512.00
2018-05-23T12:11:08.233Z,16448.00
2018-05-23T12:12:08.223Z,16256.00
2018-05-23T12:13:08.215Z,16352.00
2018-05-23T12:14:08.212Z,16192.00